Time;durP1;ratioP1;P1;durP2;ratioP2;P2;SDS_P1;SDS_P2;PMS_P1;PMS_P2;Temp;Humidity;BMP_temperature;BMP_pressure;BME280_temperature;BME280_humidity;BME280_pressure;Samples;Min_cycle;Max_cycle;Signal;HPM_P1;HPM_P2
2021/01/04 00:00:03;;;;;;;4.93;1.67;;;4.00;99.90;;;;;;4875524;28;20091;-85
2021/01/04 00:02:48;;;;;;;2.40;1.02;;;3.90;99.90;;;;;;4875061;28;20084;-87
2021/01/04 00:05:20;;;;;;;3.92;1.10;;;3.90;99.90;;;;;;4902911;28;20164;-83
2021/01/04 00:08:31;;;;;;;12.13;1.45;;;3.90;99.90;;;;;;4888996;28;20090;-85
2021/01/04 00:11:36;;;;;;;6.10;1.75;;;3.80;99.90;;;;;;4830148;28;20554;-83
2021/01/04 00:14:12;;;;;;;7.43;1.83;;;3.90;99.90;;;;;;4869877;28;20574;-85
2021/01/04 00:16:45;;;;;;;5.63;1.23;;;3.90;99.90;;;;;;4888576;28;20174;-86
2021/01/04 00:19:21;;;;;;;3.72;1.50;;;4.00;99.90;;;;;;4869330;28;20539;-85
2021/01/04 00:22:04;;;;;;;9.80;1.90;;;4.00;99.90;;;;;;4873872;28;20532;-86
2021/01/04 00:24:42;;;;;;;4.40;1.58;;;4.00;99.90;;;;;;4871658;28;20091;-83
2021/01/04 00:27:21;;;;;;;2.75;0.95;;;4.00;99.90;;;;;;4867137;28;20174;-84
2021/01/04 00:29:45;;;;;;;2.83;1.20;;;4.00;99.90;;;;;;4890142;28;20090;-86
2021/01/04 00:32:22;;;;;;;8.52;2.15;;;4.00;99.90;;;;;;4864365;28;20092;-87
2021/01/04 00:35:01;;;;;;;7.47;1.75;;;4.10;99.90;;;;;;4902367;28;20095;-82
2021/01/04 00:38:01;;;;;;;4.05;1.17;;;4.00;99.90;;;;;;4883062;28;20665;-86
2021/01/04 00:40:42;;;;;;;11.57;1.48;;;4.10;99.90;;;;;;4884257;28;20091;-83
2021/01/04 00:43:07;;;;;;;5.75;1.95;;;4.10;99.90;;;;;;4872788;28;20498;-85
2021/01/04 00:45:36;;;;;;;5.43;1.63;;;4.00;99.90;;;;;;4869141;28;20516;-88
2021/01/04 00:48:10;;;;;;;9.57;2.22;;;4.00;99.90;;;;;;4873185;28;20087;-85
2021/01/04 00:51:01;;;;;;;7.78;2.28;;;3.90;99.90;;;;;;4876179;28;20111;-83
2021/01/04 00:53:31;;;;;;;7.80;2.38;;;3.90;99.90;;;;;;4872615;28;20488;-83
2021/01/04 00:56:18;;;;;;;7.40;1.63;;;3.90;99.90;;;;;;4873922;28;20088;-84
2021/01/04 00:59:17;;;;;;;9.52;1.55;;;3.90;99.90;;;;;;4853357;28;20080;-83
2021/01/04 01:01:52;;;;;;;11.55;1.90;;;3.80;99.90;;;;;;4883962;28;20089;-81
2021/01/04 01:04:28;;;;;;;7.35;2.00;;;3.80;99.90;;;;;;4870970;28;20125;-85
2021/01/04 01:07:02;;;;;;;7.78;1.55;;;3.80;99.90;;;;;;4869542;28;20120;-83
2021/01/04 01:09:33;;;;;;;7.22;1.38;;;3.80;99.90;;;;;;4874695;28;20081;-86
2021/01/04 01:12:38;;;;;;;7.07;2.10;;;3.80;99.90;;;;;;4879632;28;20088;-83
2021/01/04 01:15:21;;;;;;;9.77;2.08;;;3.80;99.90;;;;;;4866530;28;20133;-84
2021/01/04 01:18:14;;;;;;;3.28;1.23;;;3.80;99.90;;;;;;4871789;28;20172;-83
2021/01/04 01:20:53;;;;;;;7.38;1.10;;;3.90;99.90;;;;;;4884537;28;20083;-84
2021/01/04 01:23:25;;;;;;;5.68;1.63;;;3.90;99.90;;;;;;4872506;28;20101;-80
2021/01/04 01:26:03;;;;;;;8.45;1.77;;;3.80;99.90;;;;;;4873682;28;20113;-83
2021/01/04 01:28:55;;;;;;;10.73;2.20;;;3.80;99.90;;;;;;4867140;28;20089;-82
2021/01/04 01:31:34;;;;;;;4.10;1.65;;;3.70;99.90;;;;;;4872638;28;20087;-82
2021/01/04 01:34:25;;;;;;;6.88;1.60;;;3.80;99.90;;;;;;4880607;28;20193;-85
2021/01/04 01:37:03;;;;;;;7.97;1.42;;;;;;;;;;4879381;28;20093;-84
2021/01/04 01:40:03;;;;;;;6.45;1.10;;;3.60;99.90;;;;;;4875275;28;20091;-86
2021/01/04 01:42:43;;;;;;;5.78;0.90;;;3.60;99.90;;;;;;4871113;28;20088;-84
2021/01/04 01:45:17;;;;;;;10.00;1.95;;;3.60;99.90;;;;;;4871686;28;20122;-84
2021/01/04 01:47:49;;;;;;;9.80;2.30;;;3.50;99.90;;;;;;4861067;28;20120;-82
2021/01/04 01:50:36;;;;;;;6.15;1.40;;;3.50;99.90;;;;;;4894276;28;20084;-85
2021/01/04 01:53:12;;;;;;;6.10;1.48;;;3.50;99.90;;;;;;4865686;28;20113;-84
2021/01/04 01:55:54;;;;;;;4.05;2.00;;;3.40;99.90;;;;;;4876135;28;20104;-82
2021/01/04 01:58:39;;;;;;;6.72;1.77;;;3.40;99.90;;;;;;4867328;28;20182;-83
2021/01/04 02:01:20;;;;;;;4.38;1.27;;;3.40;99.90;;;;;;4879080;28;20091;-83
2021/01/04 02:03:56;;;;;;;3.45;1.33;;;3.40;99.90;;;;;;4869266;28;20139;-82
2021/01/04 02:06:52;;;;;;;7.00;1.67;;;3.40;99.90;;;;;;4875797;28;20085;-87
2021/01/04 02:09:23;;;;;;;7.57;1.50;;;3.40;99.90;;;;;;4868218;28;20092;-82
2021/01/04 02:11:58;;;;;;;4.82;1.80;;;3.40;99.90;;;;;;4874474;28;20080;-85
2021/01/04 02:14:31;;;;;;;3.60;1.02;;;3.40;99.90;;;;;;4859158;28;20123;-82
2021/01/04 02:17:26;;;;;;;5.50;1.27;;;3.40;99.90;;;;;;4877925;28;20083;-83
2021/01/04 02:20:08;;;;;;;7.00;1.98;;;3.40;99.90;;;;;;4882700;28;20527;-83
2021/01/04 02:23:15;;;;;;;9.93;1.35;;;3.40;99.90;;;;;;4883871;28;20093;-81
2021/01/04 02:25:43;;;;;;;4.20;1.52;;;3.40;99.90;;;;;;4850573;28;21584;-83
2021/01/04 02:28:11;;;;;;;4.70;1.20;;;3.40;99.90;;;;;;4874040;28;20121;-83
2021/01/04 02:30:43;;;;;;;4.20;1.52;;;3.30;99.90;;;;;;4873543;28;20123;-82
2021/01/04 02:33:17;;;;;;;5.15;1.50;;;3.30;99.90;;;;;;4875478;28;20161;-85
2021/01/04 02:35:41;;;;;;;7.97;1.70;;;3.20;99.90;;;;;;4868304;28;20134;-84
2021/01/04 02:38:04;;;;;;;10.52;1.73;;;3.20;99.90;;;;;;4892010;28;20098;-84
2021/01/04 02:40:30;;;;;;;3.97;1.33;;;;;;;;;;4877688;28;20092;-85
2021/01/04 02:43:00;;;;;;;3.17;1.30;;;3.20;99.90;;;;;;4872840;28;20525;-84
2021/01/04 02:45:36;;;;;;;3.78;1.10;;;3.20;99.90;;;;;;4868691;28;20101;-81
2021/01/04 02:48:11;;;;;;;4.70;1.45;;;3.20;99.90;;;;;;4870280;28;20085;-87
2021/01/04 02:50:52;;;;;;;2.47;0.93;;;3.10;99.90;;;;;;4866485;28;20091;-84
2021/01/04 02:53:54;;;;;;;5.57;1.20;;;3.10;99.90;;;;;;4871993;28;20099;-83
2021/01/04 02:56:44;;;;;;;3.05;0.82;;;3.00;99.90;;;;;;4865816;28;20092;-84
2021/01/04 02:59:35;;;;;;;2.00;1.02;;;3.00;99.90;;;;;;4865823;28;20092;-85
2021/01/04 03:02:13;;;;;;;6.65;1.88;;;3.10;99.90;;;;;;4877562;28;20084;-87
2021/01/04 03:04:48;;;;;;;1.52;0.85;;;3.10;99.90;;;;;;4878964;28;20107;-84
2021/01/04 03:07:13;;;;;;;4.70;1.13;;;3.10;99.90;;;;;;4887525;28;20552;-87
2021/01/04 03:09:42;;;;;;;2.28;1.23;;;3.10;99.90;;;;;;4888210;28;20120;-85
2021/01/04 03:12:11;;;;;;;2.03;0.70;;;3.00;99.90;;;;;;4878075;28;20086;-83
2021/01/04 03:15:04;;;;;;;4.53;1.27;;;3.00;99.90;;;;;;4881978;28;20173;-83
2021/01/04 03:17:46;;;;;;;3.95;1.10;;;3.00;99.90;;;;;;4872694;28;20091;-84
2021/01/04 03:20:19;;;;;;;10.30;1.50;;;3.00;99.90;;;;;;4873799;28;20536;-83
2021/01/04 03:22:51;;;;;;;3.42;1.05;;;3.00;99.90;;;;;;4883753;28;20437;-83
2021/01/04 03:25:20;;;;;;;10.18;1.20;;;3.00;99.90;;;;;;4876221;28;20110;-85
2021/01/04 03:27:46;;;;;;;1.85;0.95;;;2.90;99.90;;;;;;4871856;28;20083;-84
2021/01/04 03:30:12;;;;;;;2.88;1.17;;;2.90;99.90;;;;;;4875645;28;20090;-84
2021/01/04 03:32:44;;;;;;;5.55;0.85;;;2.90;99.90;;;;;;4895039;28;20563;-85
2021/01/04 03:35:09;;;;;;;2.88;1.15;;;2.90;99.90;;;;;;4876846;28;20101;-83
2021/01/04 03:37:33;;;;;;;3.10;0.97;;;2.80;99.90;;;;;;4902338;28;20114;-87
2021/01/04 03:39:56;;;;;;;3.92;0.90;;;2.80;99.90;;;;;;4907834;28;20113;-84
2021/01/04 03:42:25;;;;;;;2.90;1.00;;;2.80;99.90;;;;;;4883465;28;20606;-84
2021/01/04 03:44:52;;;;;;;2.03;1.08;;;2.80;99.90;;;;;;4884240;28;20151;-82
2021/01/04 03:47:16;;;;;;;4.50;1.50;;;2.80;99.90;;;;;;4875680;28;20088;-83
2021/01/04 03:49:39;;;;;;;5.32;0.98;;;2.80;99.90;;;;;;4895283;28;20113;-84
2021/01/04 03:52:03;;;;;;;7.68;1.52;;;2.90;99.90;;;;;;4883797;28;20103;-85
2021/01/04 03:54:27;;;;;;;4.88;1.40;;;2.90;99.90;;;;;;4872213;28;20590;-83
2021/01/04 03:56:50;;;;;;;6.93;1.33;;;2.80;99.90;;;;;;4874543;28;20085;-84
2021/01/04 03:59:17;;;;;;;3.05;1.00;;;2.90;99.90;;;;;;4865282;28;20088;-85
2021/01/04 04:01:51;;;;;;;6.72;1.30;;;2.90;99.90;;;;;;4877489;28;20076;-83
2021/01/04 04:04:15;;;;;;;6.60;1.42;;;2.90;99.90;;;;;;4889502;28;20093;-83
2021/01/04 04:06:40;;;;;;;7.63;1.13;;;2.90;99.90;;;;;;4875625;28;20499;-83
2021/01/04 04:09:04;;;;;;;3.47;0.88;;;3.00;99.90;;;;;;4874567;28;20147;-84
2021/01/04 04:11:34;;;;;;;4.22;1.45;;;3.00;99.90;;;;;;4872167;28;20102;-84
2021/01/04 04:13:57;;;;;;;6.03;1.08;;;3.00;99.90;;;;;;4879096;28;20095;-83
2021/01/04 04:16:25;;;;;;;5.50;1.52;;;3.10;99.90;;;;;;4873768;28;20113;-84
2021/01/04 04:18:48;;;;;;;5.35;1.00;;;3.20;99.90;;;;;;4876591;28;20096;-83
2021/01/04 04:21:14;;;;;;;4.20;1.20;;;;;;;;;;4882909;28;20097;-85
2021/01/04 04:23:38;;;;;;;4.15;1.20;;;3.20;99.90;;;;;;4870813;28;20516;-83
2021/01/04 04:26:17;;;;;;;3.70;0.90;;;3.30;99.90;;;;;;4873345;28;20093;-86
2021/01/04 04:28:52;;;;;;;6.55;1.42;;;3.20;99.90;;;;;;4877075;28;20092;-83
2021/01/04 04:31:28;;;;;;;1.38;0.57;;;3.30;99.90;;;;;;4890755;28;20080;-84
2021/01/04 04:33:52;;;;;;;5.53;1.38;;;3.20;99.90;;;;;;4881599;28;20092;-82
2021/01/04 04:36:20;;;;;;;5.07;0.70;;;3.30;99.90;;;;;;4867396;28;20087;-83
2021/01/04 04:38:44;;;;;;;3.60;0.95;;;3.30;99.90;;;;;;4872470;28;20143;-84
2021/01/04 04:41:07;;;;;;;3.45;1.08;;;3.30;99.90;;;;;;4872956;28;20096;-82
2021/01/04 04:43:38;;;;;;;6.82;1.00;;;3.30;99.90;;;;;;4872986;28;20244;-85
2021/01/04 04:46:08;;;;;;;5.95;1.30;;;3.30;99.90;;;;;;4885451;28;20161;-84
2021/01/04 04:48:50;;;;;;;4.28;1.13;;;3.30;99.90;;;;;;4873598;28;20089;-86
2021/01/04 04:51:33;;;;;;;7.93;1.00;;;3.30;99.90;;;;;;4877876;28;20160;-84
2021/01/04 04:54:16;;;;;;;5.82;1.20;;;3.30;99.90;;;;;;4875214;28;20510;-85
2021/01/04 04:57:11;;;;;;;6.28;1.27;;;3.30;99.90;;;;;;4872939;28;20489;-86
2021/01/04 04:59:58;;;;;;;5.85;1.10;;;3.30;99.90;;;;;;4873008;28;20088;-81
2021/01/04 05:02:39;;;;;;;13.63;1.35;;;3.40;99.90;;;;;;4874449;28;20088;-82
2021/01/04 05:05:20;;;;;;;6.72;1.30;;;3.30;99.90;;;;;;4880566;28;20148;-81
2021/01/04 05:08:00;;;;;;;3.28;0.77;;;3.30;99.90;;;;;;4881523;28;20109;-84
2021/01/04 05:10:27;;;;;;;3.00;0.60;;;3.30;99.90;;;;;;4876408;28;20083;-83
2021/01/04 05:13:04;;;;;;;4.60;1.00;;;3.40;99.90;;;;;;4879261;28;20118;-83
2021/01/04 05:15:44;;;;;;;2.70;1.05;;;3.40;99.90;;;;;;4879798;28;20428;-82
2021/01/04 05:18:54;;;;;;;5.05;0.80;;;3.30;99.90;;;;;;4872220;28;20088;-84
2021/01/04 05:21:57;;;;;;;6.28;1.27;;;3.30;99.90;;;;;;4899986;28;20080;-83
2021/01/04 05:24:57;;;;;;;4.20;0.90;;;3.30;99.90;;;;;;4874845;28;20087;-83
2021/01/04 05:27:58;;;;;;;5.68;1.08;;;3.40;99.90;;;;;;4872477;28;20107;-83
2021/01/04 05:30:48;;;;;;;2.17;1.20;;;3.40;99.90;;;;;;4872330;28;20518;-84
2021/01/04 05:33:44;;;;;;;4.47;0.75;;;3.40;99.90;;;;;;4875158;28;20092;-82
2021/01/04 05:36:22;;;;;;;2.28;0.77;;;3.40;99.90;;;;;;4879959;28;20099;-85
2021/01/04 05:39:02;;;;;;;8.32;1.00;;;3.40;99.90;;;;;;4886492;28;20480;-82
2021/01/04 05:41:46;;;;;;;3.38;1.02;;;3.40;99.90;;;;;;4866407;28;20091;-85
2021/01/04 05:44:50;;;;;;;7.00;0.85;;;3.50;99.90;;;;;;4870069;28;20133;-83
2021/01/04 05:47:45;;;;;;;4.57;1.00;;;2.10;99.90;;;;;;4867005;28;20105;-85
2021/01/04 05:50:24;;;;;;;3.70;0.52;;;3.50;99.90;;;;;;4867162;28;20088;-84
2021/01/04 05:52:48;;;;;;;2.72;0.57;;;;;;;;;;4854698;28;20084;-83
2021/01/04 05:55:17;;;;;;;1.65;0.57;;;3.50;99.90;;;;;;4871164;28;20559;-82
2021/01/04 05:57:48;;;;;;;4.05;0.80;;;3.60;99.90;;;;;;4882798;28;20114;-82
2021/01/04 06:00:15;;;;;;;2.53;0.90;;;3.60;99.90;;;;;;4892911;28;20080;-83
2021/01/04 06:02:38;;;;;;;5.90;1.00;;;3.60;99.90;;;;;;4867561;28;20443;-83
2021/01/04 06:05:11;;;;;;;6.60;1.00;;;3.60;99.90;;;;;;4873929;28;20092;-81
2021/01/04 06:07:35;;;;;;;5.95;1.08;;;3.50;99.90;;;;;;4873389;28;20174;-83
2021/01/04 06:10:06;;;;;;;9.20;1.20;;;3.50;99.90;;;;;;4874062;28;20119;-83
2021/01/04 06:12:38;;;;;;;2.75;0.77;;;3.50;99.90;;;;;;4874281;28;20443;-83
2021/01/04 06:15:02;;;;;;;6.65;1.85;;;3.50;99.90;;;;;;4871426;28;20208;-81
2021/01/04 06:17:32;;;;;;;7.15;0.93;;;3.50;99.90;;;;;;4868164;28;20210;-84
2021/01/04 06:19:59;;;;;;;3.03;0.70;;;3.60;99.90;;;;;;4869485;28;20084;-84
2021/01/04 06:22:29;;;;;;;8.68;0.65;;;3.60;99.90;;;;;;4869598;28;20519;-85
2021/01/04 06:25:00;;;;;;;2.08;0.73;;;3.60;99.90;;;;;;4866806;28;20216;-84
2021/01/04 06:27:32;;;;;;;14.60;1.23;;;3.60;99.90;;;;;;4866382;28;20087;-85
2021/01/04 06:30:00;;;;;;;7.13;1.10;;;3.60;99.90;;;;;;4883991;28;20083;-84
2021/01/04 06:32:30;;;;;;;2.33;1.00;;;3.60;99.90;;;;;;4875225;28;20206;-82
2021/01/04 06:34:57;;;;;;;11.75;1.08;;;3.60;99.90;;;;;;4879632;28;20096;-83
2021/01/04 06:37:29;;;;;;;3.53;0.77;;;3.70;99.90;;;;;;4881218;28;20165;-85
2021/01/04 06:40:02;;;;;;;3.83;1.02;;;3.70;99.90;;;;;;4874520;28;20515;-83
2021/01/04 06:42:25;;;;;;;2.17;0.90;;;3.70;99.90;;;;;;4876535;28;20084;-84
2021/01/04 06:45:12;;;;;;;4.10;0.80;;;3.70;99.90;;;;;;4892159;28;20594;-86
2021/01/04 06:47:58;;;;;;;5.57;0.63;;;3.70;99.90;;;;;;4872419;28;20115;-83
2021/01/04 06:50:31;;;;;;;9.30;1.07;;;3.60;99.90;;;;;;4890759;28;20083;-83
2021/01/04 06:53:23;;;;;;;1.13;0.52;;;3.60;99.90;;;;;;4887998;28;20099;-84
2021/01/04 06:56:27;;;;;;;6.70;0.90;;;3.60;99.90;;;;;;4890350;28;20453;-83
2021/01/04 06:59:24;;;;;;;3.22;0.77;;;3.60;99.90;;;;;;4886837;28;20087;-82
2021/01/04 07:02:04;;;;;;;;;;;4.10;99.90;;;;;;4871110;28;20103;-84
2021/01/04 07:04:53;;;;;;;9.32;0.95;;;3.60;99.90;;;;;;4892466;28;20008;-83
2021/01/04 07:07:45;;;;;;;9.85;1.23;;;3.60;99.90;;;;;;4873064;28;20214;-82
2021/01/04 07:10:25;;;;;;;5.40;0.88;;;3.60;99.90;;;;;;4873368;28;20141;-82
2021/01/04 07:13:19;;;;;;;3.95;0.95;;;3.50;99.90;;;;;;4866604;28;20170;-82
2021/01/04 07:15:53;;;;;;;6.28;1.00;;;3.60;99.90;;;;;;4865801;28;20162;-83
2021/01/04 07:18:36;;;;;;;2.97;0.90;;;3.50;99.90;;;;;;4889936;28;20626;-82
2021/01/04 07:21:26;;;;;;;3.30;1.02;;;3.50;99.90;;;;;;4884995;28;20104;-83
2021/01/04 07:24:13;;;;;;;6.13;0.95;;;3.40;99.90;;;;;;4886952;28;20167;-83
2021/01/04 07:26:59;;;;;;;4.13;1.00;;;3.40;99.90;;;;;;4871132;28;20115;-82
2021/01/04 07:29:52;;;;;;;2.72;1.42;;;3.40;99.90;;;;;;4873579;28;20482;-82
2021/01/04 07:32:43;;;;;;;3.13;0.98;;;3.40;99.90;;;;;;4902219;28;20095;-83
2021/01/04 07:35:18;;;;;;;6.55;1.25;;;3.50;99.90;;;;;;4884215;28;20107;-83
2021/01/04 07:37:56;;;;;;;3.47;0.70;;;3.50;99.90;;;;;;4862313;28;20159;-82
2021/01/04 07:40:48;;;;;;;3.45;0.70;;;3.40;99.90;;;;;;4904385;28;20090;-83
2021/01/04 07:46:56;;;;;;;2.10;0.88;;;3.40;99.90;;;;;;4862881;28;20158;-84
2021/01/04 07:49:34;;;;;;;;;;;3.30;99.90;;;;;;4883153;28;20433;-82
2021/01/04 07:52:18;;;;;;;2.08;0.85;;;3.30;99.90;;;;;;4872150;28;19977;-82
2021/01/04 07:55:24;;;;;;;5.85;0.93;;;3.40;99.90;;;;;;4894253;28;20084;-83
2021/01/04 07:58:25;;;;;;;4.47;1.00;;;3.40;99.90;;;;;;4848286;28;20093;-82
2021/01/04 08:01:23;;;;;;;2.83;1.00;;;3.40;99.90;;;;;;4880696;28;20095;-84
2021/01/04 08:04:19;;;;;;;3.42;0.95;;;3.40;99.90;;;;;;4877288;28;20089;-83
2021/01/04 08:07:25;;;;;;;2.92;1.00;;;3.40;99.90;;;;;;4873297;28;20088;-84
2021/01/04 08:10:26;;;;;;;6.15;1.23;;;3.30;99.90;;;;;;4874034;28;20101;-83
2021/01/04 08:13:23;;;;;;;6.80;1.15;;;3.40;99.90;;;;;;4845996;28;20167;-82
2021/01/04 08:15:51;;;;;;;5.47;1.40;;;3.40;99.90;;;;;;4885007;28;20138;-83
2021/01/04 08:18:17;;;;;;;14.88;1.85;;;3.30;99.90;;;;;;4874428;28;20089;-82
2021/01/04 08:20:46;;;;;;;16.25;1.17;;;3.30;99.90;;;;;;4874547;28;20104;-83
2021/01/04 08:23:36;;;;;;;3.28;1.08;;;3.30;99.90;;;;;;4878599;28;20083;-83
2021/01/04 08:26:25;;;;;;;7.45;1.58;;;3.30;99.90;;;;;;4889168;28;20446;-83
2021/01/04 08:29:01;;;;;;;4.80;1.35;;;3.30;99.90;;;;;;4876415;28;20084;-82
2021/01/04 08:31:40;;;;;;;3.35;1.17;;;3.30;99.90;;;;;;4872410;28;20099;-82
2021/01/04 08:34:06;;;;;;;5.88;1.60;;;3.20;99.90;;;;;;4894391;28;20089;-84
2021/01/04 08:36:50;;;;;;;4.57;1.50;;;3.10;99.90;;;;;;4881924;28;20557;-83
2021/01/04 08:39:39;;;;;;;5.00;1.05;;;3.20;99.90;;;;;;4872317;28;20091;-83
2021/01/04 08:42:15;;;;;;;6.32;1.50;;;3.20;99.90;;;;;;4866220;28;20580;-83
2021/01/04 08:44:38;;;;;;;4.13;1.50;;;3.20;99.90;;;;;;4873189;28;20086;-82
2021/01/04 08:47:08;;;;;;;3.20;1.02;;;3.30;99.90;;;;;;4882395;28;20087;-85
2021/01/04 08:49:41;;;;;;;11.00;1.95;;;3.40;99.90;;;;;;4867357;28;20144;-82
2021/01/04 08:52:17;;;;;;;5.13;1.75;;;2.50;99.90;;;;;;4892058;28;20422;-82
2021/01/04 08:54:39;;;;;;;5.82;1.27;;;3.30;99.90;;;;;;4880204;28;20237;-82
2021/01/04 08:57:15;;;;;;;7.45;1.40;;;3.30;99.90;;;;;;4876852;28;20483;-82
2021/01/04 08:59:55;;;;;;;5.80;1.42;;;3.30;99.90;;;;;;4877783;28;20098;-84
2021/01/04 09:02:54;;;;;;;7.55;1.70;;;3.30;99.90;;;;;;4830550;28;20091;-83
2021/01/04 09:05:59;;;;;;;2.78;1.50;;;3.30;99.90;;;;;;4826457;28;20098;-82
2021/01/04 09:09:07;;;;;;;10.80;1.90;;;3.40;99.90;;;;;;4829794;28;20162;-82
2021/01/04 09:12:33;;;;;;;3.33;1.30;;;3.30;99.90;;;;;;4813357;28;20095;-82
2021/01/04 09:15:54;;;;;;;2.85;1.17;;;3.30;99.90;;;;;;4822329;28;20095;-83
2021/01/04 09:19:20;;;;;;;3.28;1.67;;;3.30;99.90;;;;;;4829176;28;20343;-83
2021/01/04 09:25:48;;;;;;;10.02;1.70;;;3.30;99.90;;;;;;4841968;28;20143;-83
2021/01/04 09:28:26;;;;;;;5.28;1.52;;;3.30;99.90;;;;;;4841936;28;20148;-81
2021/01/04 09:34:21;;;;;;;3.88;1.85;;;3.20;99.90;;;;;;4819948;28;20201;-84
2021/01/04 09:36:45;;;;;;;7.75;2.00;;;3.20;99.90;;;;;;4820387;28;20095;-80
2021/01/04 09:39:48;;;;;;;8.85;1.63;;;3.20;99.90;;;;;;4819489;28;21919;-83
2021/01/04 09:45:49;;;;;;;2.17;1.15;;;3.10;99.90;;;;;;4809957;28;20583;-82
2021/01/04 09:48:43;;;;;;;4.05;1.13;;;3.10;99.90;;;;;;4810544;28;20102;-83
2021/01/04 09:51:14;;;;;;;2.17;1.25;;;3.10;99.90;;;;;;4832869;28;20117;-84
2021/01/04 09:57:37;;;;;;;2.95;1.52;;;3.00;99.90;;;;;;4816669;28;20096;-84
2021/01/04 10:13:50;;;;;;;4.68;1.02;;;2.90;99.90;;;;;;4839087;28;21039;-82
2021/01/04 10:16:31;;;;;;;2.25;0.93;;;2.90;99.90;;;;;;4834832;28;20115;-82
2021/01/04 10:19:06;;;;;;;2.83;1.23;;;2.90;99.90;;;;;;4821417;28;20104;-83
2021/01/04 10:25:12;;;;;;;2.95;1.50;;;3.00;99.90;;;;;;4813600;28;19999;-80
2021/01/04 10:27:46;;;;;;;7.35;1.48;;;2.90;99.90;;;;;;4816638;28;20092;-84
2021/01/04 10:30:15;;;;;;;2.65;1.17;;;2.90;99.90;;;;;;4821721;28;20199;-81
2021/01/04 10:33:01;;;;;;;4.00;1.25;;;3.00;99.90;;;;;;4823916;28;20457;-85
2021/01/04 10:38:28;;;;;;;4.05;1.20;;;2.90;99.90;;;;;;4819895;28;20088;-84
2021/01/04 10:40:57;;;;;;;3.78;1.42;;;3.00;99.90;;;;;;4811051;28;20096;-83
2021/01/04 10:43:31;;;;;;;4.60;1.73;;;2.90;99.90;;;;;;4819911;28;20112;-81
2021/01/04 10:46:00;;;;;;;5.97;1.55;;;2.90;99.90;;;;;;4827663;28;20629;-83
2021/01/04 10:48:24;;;;;;;2.20;1.45;;;2.90;99.90;;;;;;4844074;28;20095;-82
2021/01/04 10:50:51;;;;;;;3.03;1.70;;;2.90;99.90;;;;;;4878069;28;20120;-84
2021/01/04 10:53:34;;;;;;;4.78;1.42;;;2.90;99.90;;;;;;4877761;28;20520;-83
2021/01/04 10:56:10;;;;;;;12.77;2.20;;;2.90;99.90;;;;;;4896265;28;20095;-85
2021/01/04 10:58:40;;;;;;;5.05;1.83;;;2.90;99.90;;;;;;4894691;28;20086;-84
2021/01/04 11:01:13;;;;;;;3.15;1.58;;;2.90;99.90;;;;;;4893186;28;20138;-85
2021/01/04 11:03:45;;;;;;;2.88;1.70;;;2.90;99.90;;;;;;4894123;28;20091;-85
2021/01/04 11:06:18;;;;;;;4.60;1.70;;;2.90;99.90;;;;;;4895731;28;20081;-83
2021/01/04 11:08:41;;;;;;;3.25;1.92;;;2.90;99.90;;;;;;4898014;28;20137;-83
2021/01/04 11:11:22;;;;;;;4.65;1.73;;;3.00;99.90;;;;;;4885160;28;20083;-82
2021/01/04 11:13:45;;;;;;;14.35;1.88;;;3.00;99.90;;;;;;4886489;28;20242;-83
2021/01/04 11:16:26;;;;;;;5.65;1.92;;;3.00;99.90;;;;;;4875895;28;20146;-82
2021/01/04 11:18:52;;;;;;;4.63;1.83;;;3.00;99.90;;;;;;4879879;28;20087;-84
2021/01/04 11:21:36;;;;;;;3.58;1.60;;;3.00;99.90;;;;;;4886418;28;20483;-83
2021/01/04 11:24:06;;;;;;;7.60;1.88;;;3.00;99.90;;;;;;4886492;28;20512;-84
2021/01/04 11:26:31;;;;;;;4.13;2.00;;;3.00;99.90;;;;;;4898084;28;20174;-83
2021/01/04 11:28:54;;;;;;;5.32;2.15;;;3.00;99.90;;;;;;4888197;28;20088;-85
2021/01/04 11:31:31;;;;;;;5.60;1.77;;;3.00;99.90;;;;;;4901133;28;20107;-83
2021/01/04 11:34:01;;;;;;;6.85;1.60;;;3.00;99.90;;;;;;4903415;28;20108;-83
2021/01/04 11:36:26;;;;;;;3.72;1.63;;;3.00;99.90;;;;;;4902297;28;20101;-84
2021/01/04 11:38:59;;;;;;;3.45;1.63;;;;;;;;;;4853387;28;20116;-83
2021/01/04 11:41:32;;;;;;;3.35;1.75;;;3.00;99.90;;;;;;4878303;28;21168;-83
2021/01/04 11:43:58;;;;;;;6.90;2.03;;;3.10;99.90;;;;;;4886980;28;20110;-83
2021/01/04 11:46:22;;;;;;;3.58;1.40;;;3.10;99.90;;;;;;4871268;28;20552;-82
2021/01/04 11:48:48;;;;;;;4.50;1.80;;;;;;;;;;4874734;28;20091;-84
2021/01/04 11:51:21;;;;;;;3.78;1.52;;;3.00;99.90;;;;;;4898050;28;20090;-83
2021/01/04 11:53:44;;;;;;;6.60;1.73;;;3.10;99.90;;;;;;4901471;28;20084;-84
2021/01/04 11:56:09;;;;;;;3.70;1.60;;;3.10;99.90;;;;;;4900007;28;20123;-83
2021/01/04 11:58:39;;;;;;;3.40;1.55;;;3.10;99.90;;;;;;4898455;28;20097;-84
2021/01/04 12:01:02;;;;;;;3.38;1.48;;;3.00;99.90;;;;;;4886892;28;20106;-83
2021/01/04 12:03:25;;;;;;;4.18;1.40;;;3.00;99.90;;;;;;4900157;28;20087;-83
2021/01/04 12:05:50;;;;;;;7.55;1.98;;;3.00;99.90;;;;;;4896985;28;20084;-84
2021/01/04 12:08:13;;;;;;;8.32;2.00;;;3.00;99.90;;;;;;4894248;28;20090;-85
2021/01/04 12:10:36;;;;;;;3.50;1.58;;;3.00;99.90;;;;;;4898896;28;20085;-83
2021/01/04 12:13:06;;;;;;;4.93;1.73;;;3.00;99.90;;;;;;4895282;28;20133;-82
2021/01/04 12:15:35;;;;;;;3.17;1.80;;;3.00;99.90;;;;;;4900534;28;20092;-82
2021/01/04 12:18:06;;;;;;;5.75;2.03;;;3.00;99.90;;;;;;4899367;28;20142;-83
2021/01/04 12:20:30;;;;;;;4.13;1.75;;;3.00;99.90;;;;;;4892675;28;20138;-82
2021/01/04 12:22:56;;;;;;;7.35;1.60;;;3.00;99.90;;;;;;4898396;28;20141;-83
2021/01/04 12:25:19;;;;;;;;;;;3.00;99.90;;;;;;4892007;28;20512;-83
2021/01/04 12:27:41;;;;;;;5.38;1.67;;;3.00;99.90;;;;;;4893526;28;20391;-83
2021/01/04 12:30:06;;;;;;;5.20;2.20;;;3.00;99.90;;;;;;4898155;28;20088;-84
2021/01/04 12:32:30;;;;;;;5.93;2.00;;;3.00;99.90;;;;;;4900399;28;20085;-85
2021/01/04 12:35:01;;;;;;;7.45;2.40;;;3.10;99.90;;;;;;4901545;28;20163;-82
2021/01/04 12:37:25;;;;;;;4.85;2.28;;;3.10;99.90;;;;;;4886439;28;20087;-83
2021/01/04 12:39:49;;;;;;;4.38;1.95;;;3.10;99.90;;;;;;4901571;28;20104;-88
2021/01/04 12:42:20;;;;;;;6.03;1.98;;;3.10;99.90;;;;;;4886120;28;20104;-84
2021/01/04 12:44:50;;;;;;;6.45;2.15;;;3.00;99.90;;;;;;4896470;28;20532;-85
2021/01/04 12:47:13;;;;;;;3.15;1.77;;;3.00;99.90;;;;;;4892809;28;20101;-83
2021/01/04 12:49:44;;;;;;;4.20;1.92;;;3.00;99.90;;;;;;4891995;28;20556;-83
2021/01/04 12:52:07;;;;;;;10.13;1.88;;;3.00;99.90;;;;;;4873007;28;20077;-83
2021/01/04 12:54:31;;;;;;;1.42;1.00;;;3.00;99.90;;;;;;4881897;28;20084;-82
2021/01/04 12:57:04;;;;;;;6.95;2.70;;;3.00;99.90;;;;;;4893677;28;20091;-83
2021/01/04 12:59:37;;;;;;;4.35;2.25;;;3.00;99.90;;;;;;4895791;28;20143;-83
2021/01/04 13:02:01;;;;;;;4.05;1.63;;;2.90;99.90;;;;;;4882170;28;20591;-81
2021/01/04 13:04:27;;;;;;;5.20;2.15;;;2.90;99.90;;;;;;4887187;28;20148;-83
2021/01/04 13:06:52;;;;;;;5.20;2.10;;;2.90;99.90;;;;;;4887872;28;20096;-83
2021/01/04 13:09:29;;;;;;;6.67;2.27;;;2.90;99.90;;;;;;4892139;28;20506;-84
2021/01/04 13:11:59;;;;;;;3.10;1.88;;;2.90;99.90;;;;;;4874277;28;20146;-83
2021/01/04 13:14:25;;;;;;;4.07;1.50;;;;;;;;;;4897879;28;20090;-82
2021/01/04 13:16:53;;;;;;;6.45;2.80;;;2.80;99.90;;;;;;4898443;28;20094;-82
2021/01/04 13:19:27;;;;;;;4.07;2.25;;;2.80;99.90;;;;;;4889691;28;20505;-82
2021/01/04 13:21:54;;;;;;;3.55;1.67;;;2.80;99.90;;;;;;4884172;28;20091;-82
2021/01/04 13:24:18;;;;;;;4.35;2.17;;;2.80;99.90;;;;;;4887448;28;20099;-83
2021/01/04 13:26:45;;;;;;;4.95;1.95;;;2.80;99.90;;;;;;4886245;28;20087;-83
2021/01/04 13:29:08;;;;;;;3.30;2.00;;;2.90;99.90;;;;;;4882572;28;20098;-83
2021/01/04 13:31:32;;;;;;;5.15;2.17;;;2.90;99.90;;;;;;4880531;28;20551;-85
2021/01/04 13:33:55;;;;;;;8.70;3.30;;;2.80;99.90;;;;;;4882007;28;20556;-84
2021/01/04 13:36:21;;;;;;;5.85;2.63;;;2.80;99.90;;;;;;4882196;28;20098;-84
2021/01/04 13:38:46;;;;;;;3.78;1.92;;;2.80;99.90;;;;;;4886882;28;20095;-82
2021/01/04 13:41:11;;;;;;;8.00;2.92;;;2.80;99.90;;;;;;4887661;28;20589;-84
2021/01/04 13:43:44;;;;;;;17.05;4.75;;;2.80;99.90;;;;;;4897429;28;20087;-84
2021/01/04 13:46:21;;;;;;;7.97;3.10;;;2.80;99.90;;;;;;4890167;28;20095;-85
2021/01/04 13:48:47;;;;;;;4.90;2.20;;;2.80;99.90;;;;;;4889899;28;20532;-82
2021/01/04 13:51:13;;;;;;;7.03;2.55;;;2.80;99.90;;;;;;4894156;28;20511;-84
2021/01/04 13:53:37;;;;;;;7.60;1.90;;;2.80;99.90;;;;;;4902054;28;20549;-82
2021/01/04 13:56:00;;;;;;;4.88;1.77;;;2.80;99.90;;;;;;4894469;28;20538;-82
2021/01/04 13:58:23;;;;;;;8.07;2.67;;;2.80;99.90;;;;;;4887123;28;20099;-83
2021/01/04 14:00:48;;;;;;;5.50;2.80;;;2.70;99.90;;;;;;4885827;28;20529;-82
2021/01/04 14:03:13;;;;;;;4.97;2.00;;;2.70;99.90;;;;;;4889706;28;20116;-82
2021/01/04 14:05:40;;;;;;;5.43;2.33;;;2.70;99.90;;;;;;4896168;28;20103;-82
2021/01/04 14:08:04;;;;;;;6.22;2.63;;;2.70;99.90;;;;;;4890946;28;20095;-83
2021/01/04 14:10:27;;;;;;;4.53;2.38;;;2.70;99.90;;;;;;4877750;28;20123;-83
2021/01/04 14:12:56;;;;;;;4.13;2.15;;;2.70;99.90;;;;;;4894333;28;20142;-83
2021/01/04 14:15:19;;;;;;;4.95;2.55;;;2.70;99.90;;;;;;4897028;28;20140;-80
2021/01/04 14:17:50;;;;;;;11.82;2.65;;;2.70;99.90;;;;;;4889818;28;20080;-82
2021/01/04 14:20:14;;;;;;;10.90;3.25;;;2.60;99.90;;;;;;4886771;28;20096;-83
2021/01/04 14:22:39;;;;;;;4.65;2.30;;;2.60;99.90;;;;;;4888076;28;20514;-82